createdAt,value
2019-06-08T00:00:01.900Z,16.60
2019-06-08T00:00:37.235Z,16.60
2019-06-08T00:01:14.392Z,16.60
2019-06-08T00:01:50.164Z,16.60
2019-06-08T00:02:25.518Z,16.60
2019-06-08T00:03:01.395Z,16.60
2019-06-08T00:03:37.054Z,16.60
2019-06-08T00:04:12.976Z,16.60
2019-06-08T00:04:48.777Z,16.60
2019-06-08T00:05:24.397Z,16.60
2019-06-08T00:05:59.754Z,16.60
2019-06-08T00:06:35.371Z,16.60
2019-06-08T00:07:11.072Z,16.60
2019-06-08T00:07:46.666Z,16.60
2019-06-08T00:08:23.018Z,16.60
2019-06-08T00:08:59.111Z,16.70
2019-06-08T00:09:35.510Z,16.60
2019-06-08T00:10:11.130Z,16.70
2019-06-08T00:10:46.743Z,16.70
2019-06-08T00:11:23.260Z,16.70
2019-06-08T00:11:59.585Z,16.70
2019-06-08T00:12:35.299Z,16.70
2019-06-08T00:13:10.977Z,16.70
2019-06-08T00:13:46.866Z,16.70
2019-06-08T00:14:23.660Z,16.70
2019-06-08T00:15:00.203Z,16.70
2019-06-08T00:15:35.978Z,16.70
2019-06-08T00:16:13.216Z,16.70
2019-06-08T00:16:48.759Z,16.70
2019-06-08T00:17:37.241Z,16.60
2019-06-08T00:18:04.248Z,16.60
2019-06-08T00:18:39.514Z,16.60
2019-06-08T00:19:15.291Z,16.60
2019-06-08T00:19:51.028Z,16.60
2019-06-08T00:20:26.105Z,16.60
2019-06-08T00:21:01.717Z,16.60
2019-06-08T00:21:37.345Z,16.60
2019-06-08T00:22:13.576Z,16.60
2019-06-08T00:22:49.312Z,16.60
2019-06-08T00:23:24.943Z,16.60
2019-06-08T00:23:59.971Z,16.50
2019-06-08T00:24:35.581Z,16.50
2019-06-08T00:25:13.700Z,16.50
2019-06-08T00:25:49.151Z,16.50
2019-06-08T00:26:25.028Z,16.50
2019-06-08T00:27:00.926Z,16.50
2019-06-08T00:27:35.993Z,16.50
2019-06-08T00:28:14.143Z,16.50
2019-06-08T00:28:49.858Z,16.50
2019-06-08T00:29:24.894Z,16.50
2019-06-08T00:30:00.518Z,16.50
2019-06-08T00:30:37.255Z,16.50
2019-06-08T00:31:12.696Z,16.50
2019-06-08T00:31:48.337Z,16.50
2019-06-08T00:32:24.538Z,16.50
2019-06-08T00:32:59.782Z,16.50
2019-06-08T00:33:35.419Z,16.50
2019-06-08T00:34:11.037Z,16.50
2019-06-08T00:34:46.315Z,16.50
2019-06-08T00:35:22.780Z,16.40
2019-06-08T00:35:58.459Z,16.50
2019-06-08T00:36:33.484Z,16.50
2019-06-08T00:37:09.388Z,16.40
2019-06-08T00:37:45.005Z,16.50
2019-06-08T00:38:21.008Z,16.50
2019-06-08T00:38:58.050Z,16.50
2019-06-08T00:39:33.774Z,16.40
2019-06-08T00:40:08.850Z,16.50
2019-06-08T00:40:44.987Z,16.40
2019-06-08T00:41:22.103Z,16.50
2019-06-08T00:41:57.695Z,16.50
2019-06-08T00:42:33.880Z,16.50
2019-06-08T00:43:09.832Z,16.50
2019-06-08T00:43:45.201Z,16.40
2019-06-08T00:44:21.307Z,16.40
2019-06-08T00:44:56.963Z,16.40
2019-06-08T00:45:32.082Z,16.50
2019-06-08T00:46:07.740Z,16.50
2019-06-08T00:46:43.700Z,16.50
2019-06-08T00:47:18.794Z,16.50
2019-06-08T00:47:55.718Z,16.50
2019-06-08T00:48:31.604Z,16.50
2019-06-08T00:49:07.608Z,16.50
2019-06-08T00:49:43.231Z,16.50
2019-06-08T00:50:19.311Z,16.50
2019-06-08T00:50:54.408Z,16.50
2019-06-08T00:51:30.098Z,16.50
2019-06-08T00:52:05.728Z,16.50
2019-06-08T00:52:40.774Z,16.50
2019-06-08T00:53:17.067Z,16.50
2019-06-08T00:53:52.758Z,16.50
2019-06-08T00:54:27.796Z,16.50
2019-06-08T00:55:03.450Z,16.50
2019-06-08T00:55:39.060Z,16.50
2019-06-08T00:56:14.096Z,16.50
2019-06-08T00:56:50.483Z,16.50
2019-06-08T00:57:26.163Z,16.50
2019-06-08T00:58:02.594Z,16.50
2019-06-08T00:58:38.227Z,16.50
2019-06-08T00:59:13.842Z,16.50
2019-06-08T00:59:48.877Z,16.50
2019-06-08T01:00:24.646Z,16.50
2019-06-08T01:01:00.403Z,16.50
2019-06-08T01:01:35.443Z,16.50
2019-06-08T01:02:11.055Z,16.50
2019-06-08T01:02:46.683Z,16.50
2019-06-08T01:03:21.787Z,16.50
2019-06-08T01:03:57.673Z,16.50
2019-06-08T01:04:33.288Z,16.50
2019-06-08T01:05:08.356Z,16.50
2019-06-08T01:05:43.962Z,16.50
2019-06-08T01:06:20.947Z,16.50
2019-06-08T01:06:56.219Z,16.50
2019-06-08T01:07:32.395Z,16.50
2019-06-08T01:08:08.067Z,16.50
2019-06-08T01:08:43.586Z,16.50
2019-06-08T01:09:20.192Z,16.50
2019-06-08T01:09:56.260Z,16.50
2019-06-08T01:10:31.482Z,16.50
2019-06-08T01:11:07.384Z,16.50
2019-06-08T01:11:43.033Z,16.50
2019-06-08T01:12:18.676Z,16.50
2019-06-08T01:12:54.475Z,16.50
2019-06-08T01:13:30.156Z,16.50
2019-06-08T01:14:05.536Z,16.50
2019-06-08T01:14:41.131Z,16.50
2019-06-08T01:15:16.947Z,16.50
2019-06-08T01:15:52.180Z,16.50
2019-06-08T01:16:29.178Z,16.50
2019-06-08T01:17:04.916Z,16.50
2019-06-08T01:17:39.948Z,16.50
2019-06-08T01:18:15.573Z,16.50
2019-06-08T01:18:51.190Z,16.50
2019-06-08T01:19:27.424Z,16.50
2019-06-08T01:20:03.170Z,16.50
2019-06-08T01:20:38.791Z,16.50
2019-06-08T01:21:13.844Z,16.50
2019-06-08T01:21:49.719Z,16.60
2019-06-08T01:22:25.602Z,16.50
2019-06-08T01:23:00.678Z,16.50
2019-06-08T01:23:36.365Z,16.50
2019-06-08T01:24:12.023Z,16.50
2019-06-08T01:24:47.335Z,16.50
2019-06-08T01:25:23.683Z,16.50
2019-06-08T01:25:59.779Z,16.50
2019-06-08T01:26:34.790Z,16.50
2019-06-08T01:27:10.394Z,16.50
2019-06-08T01:27:46.362Z,16.50
2019-06-08T01:28:22.147Z,16.50
2019-06-08T01:28:57.883Z,16.50
2019-06-08T01:29:33.505Z,16.50
2019-06-08T01:30:08.571Z,16.50
2019-06-08T01:30:44.473Z,16.50
2019-06-08T01:31:20.411Z,16.50
2019-06-08T01:31:55.539Z,16.50
2019-06-08T01:32:31.167Z,16.50
2019-06-08T01:33:06.778Z,16.50
2019-06-08T01:33:41.806Z,16.50
2019-06-08T01:34:17.830Z,16.50
2019-06-08T01:34:53.467Z,16.50
2019-06-08T01:35:28.903Z,16.50
2019-06-08T01:36:05.791Z,16.50
2019-06-08T01:36:41.728Z,16.50
2019-06-08T01:37:17.100Z,16.50
2019-06-08T01:37:52.702Z,16.50
2019-06-08T01:38:29.154Z,16.50
2019-06-08T01:39:05.609Z,16.50
2019-06-08T01:39:41.630Z,16.50
2019-06-08T01:40:17.484Z,16.50
2019-06-08T01:40:52.527Z,16.50
2019-06-08T01:41:29.537Z,16.50
2019-06-08T01:42:05.278Z,16.50
2019-06-08T01:42:40.330Z,16.40
2019-06-08T01:43:15.942Z,16.40
2019-06-08T01:43:51.995Z,16.50
2019-06-08T01:44:28.094Z,16.50
2019-06-08T01:45:05.406Z,16.50
2019-06-08T01:45:41.387Z,16.40
2019-06-08T01:46:16.416Z,16.50
2019-06-08T01:46:52.055Z,16.50
2019-06-08T01:47:28.285Z,16.50
2019-06-08T01:48:18.772Z,16.50
2019-06-08T01:48:41.202Z,16.50
2019-06-08T01:49:16.830Z,16.50
2019-06-08T01:49:51.919Z,16.50
2019-06-08T01:50:28.449Z,16.50
2019-06-08T01:51:04.194Z,16.50
2019-06-08T01:51:39.223Z,16.50
2019-06-08T01:52:15.137Z,16.40
2019-06-08T01:52:50.783Z,16.50
2019-06-08T01:53:26.866Z,16.40
2019-06-08T01:54:02.525Z,16.50
2019-06-08T01:54:38.463Z,16.40
2019-06-08T01:55:13.867Z,16.40
2019-06-08T01:55:49.495Z,16.40
2019-06-08T01:56:25.391Z,16.40
2019-06-08T01:57:00.713Z,16.40
2019-06-08T01:57:36.409Z,16.40
2019-06-08T01:58:12.014Z,16.40
2019-06-08T01:58:47.551Z,16.40
2019-06-08T01:59:23.347Z,16.40
2019-06-08T01:59:59.258Z,16.40
2019-06-08T02:00:39.419Z,16.40
2019-06-08T02:01:11.915Z,16.40
2019-06-08T02:01:47.519Z,16.40
2019-06-08T02:02:23.756Z,16.40
2019-06-08T02:02:59.549Z,16.40
2019-06-08T02:03:35.463Z,16.40
2019-06-08T02:04:10.860Z,16.40
2019-06-08T02:04:46.919Z,16.40
2019-06-08T02:05:23.980Z,16.40
2019-06-08T02:05:59.471Z,16.40
2019-06-08T02:06:35.094Z,16.40
2019-06-08T02:07:10.714Z,16.40
2019-06-08T02:07:45.748Z,16.40
2019-06-08T02:08:21.372Z,16.40
2019-06-08T02:08:57.631Z,16.30
2019-06-08T02:09:32.795Z,16.30
2019-06-08T02:10:08.574Z,16.30
2019-06-08T02:10:44.187Z,16.30
2019-06-08T02:11:19.297Z,16.30
2019-06-08T02:11:54.906Z,16.30
2019-06-08T02:12:31.146Z,16.30
2019-06-08T02:13:08.641Z,16.30
2019-06-08T02:13:43.682Z,16.30
2019-06-08T02:14:19.316Z,16.30
2019-06-08T02:14:54.346Z,16.30
2019-06-08T02:15:32.010Z,16.30
2019-06-08T02:16:07.543Z,16.30
2019-06-08T02:16:42.572Z,16.30
2019-06-08T02:17:18.250Z,16.30
2019-06-08T02:17:53.860Z,16.30
2019-06-08T02:18:41.845Z,16.30
2019-06-08T02:19:06.231Z,16.20
2019-06-08T02:19:42.119Z,16.20
2019-06-08T02:20:18.147Z,16.20
2019-06-08T02:20:53.758Z,16.20
2019-06-08T02:21:30.861Z,16.20
2019-06-08T02:22:07.039Z,16.20
2019-06-08T02:22:42.658Z,16.20
2019-06-08T02:23:18.292Z,16.20
2019-06-08T02:23:53.315Z,16.20
2019-06-08T02:24:29.209Z,16.20
2019-06-08T02:25:05.130Z,16.20
2019-06-08T02:25:40.176Z,16.20
2019-06-08T02:26:15.795Z,16.20
2019-06-08T02:26:51.434Z,16.20
2019-06-08T02:27:27.255Z,16.20
2019-06-08T02:28:03.023Z,16.20
2019-06-08T02:28:40.132Z,16.20
2019-06-08T02:29:15.579Z,16.20
2019-06-08T02:29:51.215Z,16.20
2019-06-08T02:30:32.775Z,16.20
2019-06-08T02:31:05.750Z,16.20
2019-06-08T02:31:41.988Z,16.20
2019-06-08T02:32:17.967Z,16.20
2019-06-08T02:32:53.011Z,16.20
2019-06-08T02:33:30.283Z,16.20
2019-06-08T02:34:06.123Z,16.20
2019-06-08T02:34:41.466Z,16.20
2019-06-08T02:35:17.062Z,16.20
2019-06-08T02:35:52.664Z,16.20
2019-06-08T02:36:28.781Z,16.20
2019-06-08T02:37:05.007Z,16.20
2019-06-08T02:37:41.146Z,16.20
2019-06-08T02:38:17.239Z,16.20
2019-06-08T02:38:52.847Z,16.20
2019-06-08T02:39:28.592Z,16.10
2019-06-08T02:40:03.718Z,16.10
2019-06-08T02:40:40.222Z,16.10
2019-06-08T02:41:15.920Z,16.10
2019-06-08T02:41:51.034Z,16.10
2019-06-08T02:42:28.399Z,16.10
2019-06-08T02:43:03.971Z,16.10
2019-06-08T02:43:40.335Z,16.10
2019-06-08T02:44:17.282Z,16.10
2019-06-08T02:44:53.868Z,16.10
2019-06-08T02:45:29.753Z,16.10
2019-06-08T02:46:06.279Z,16.10
2019-06-08T02:46:41.884Z,16.10
2019-06-08T02:47:17.278Z,16.10
2019-06-08T02:47:52.901Z,16.10
2019-06-08T02:48:29.529Z,16.10
2019-06-08T02:49:05.234Z,16.10
2019-06-08T02:49:40.956Z,16.00
2019-06-08T02:50:16.563Z,16.00
2019-06-08T02:50:52.964Z,16.00
2019-06-08T02:51:31.231Z,16.00
2019-06-08T02:52:06.867Z,16.00
2019-06-08T02:52:41.909Z,16.00
2019-06-08T02:53:17.743Z,16.00
2019-06-08T02:53:53.347Z,16.00
2019-06-08T02:54:30.132Z,16.00
2019-06-08T02:55:06.575Z,16.00
2019-06-08T02:55:42.574Z,16.00
2019-06-08T02:56:17.609Z,16.00
2019-06-08T02:56:53.207Z,16.00
2019-06-08T02:57:29.185Z,16.00
2019-06-08T02:58:05.401Z,16.00
2019-06-08T02:58:41.017Z,16.00
2019-06-08T02:59:16.638Z,16.00
2019-06-08T02:59:51.678Z,16.00
2019-06-08T03:00:27.308Z,16.00
2019-06-08T03:01:02.939Z,16.00
2019-06-08T03:01:40.196Z,16.00
2019-06-08T03:02:15.296Z,16.00
2019-06-08T03:02:50.913Z,16.00
2019-06-08T03:03:27.504Z,16.00
2019-06-08T03:04:03.205Z,16.00
2019-06-08T03:04:41.112Z,16.00
2019-06-08T03:05:17.450Z,16.00
2019-06-08T03:05:53.107Z,16.00
2019-06-08T03:06:30.308Z,16.00
2019-06-08T03:07:06.122Z,16.00
2019-06-08T03:07:43.107Z,16.00
2019-06-08T03:08:18.719Z,15.90
2019-06-08T03:08:53.756Z,15.90
2019-06-08T03:09:30.472Z,15.90
2019-06-08T03:10:06.459Z,15.90
2019-06-08T03:10:42.069Z,15.90
2019-06-08T03:11:17.667Z,15.90
2019-06-08T03:11:53.322Z,15.90
2019-06-08T03:12:28.684Z,15.90
2019-06-08T03:13:04.639Z,15.90
2019-06-08T03:13:42.382Z,15.90
2019-06-08T03:14:17.829Z,15.90
2019-06-08T03:14:53.511Z,15.90
2019-06-08T03:15:32.308Z,15.90
2019-06-08T03:16:07.567Z,15.90
2019-06-08T03:16:43.375Z,15.90
2019-06-08T03:17:19.080Z,15.90
2019-06-08T03:17:54.107Z,15.90
2019-06-08T03:18:31.467Z,15.90
2019-06-08T03:19:20.867Z,15.90
2019-06-08T03:19:44.495Z,15.90
2019-06-08T03:20:20.128Z,15.90
2019-06-08T03:20:55.745Z,15.90
2019-06-08T03:21:31.426Z,15.90
2019-06-08T03:22:10.651Z,15.90
2019-06-08T03:22:44.535Z,15.90
2019-06-08T03:23:19.906Z,15.90
2019-06-08T03:23:55.513Z,15.90
2019-06-08T03:24:32.390Z,15.90
2019-06-08T03:25:07.955Z,15.90
2019-06-08T03:25:51.916Z,15.90
2019-06-08T03:26:20.882Z,15.90
2019-06-08T03:26:56.008Z,15.90
2019-06-08T03:27:34.766Z,15.90
2019-06-08T03:28:10.045Z,15.90
2019-06-08T03:28:45.078Z,15.90
2019-06-08T03:29:20.714Z,15.90
2019-06-08T03:29:56.366Z,15.90
2019-06-08T03:30:34.190Z,15.90
2019-06-08T03:31:09.455Z,15.90
2019-06-08T03:31:54.205Z,15.90
2019-06-08T03:32:21.806Z,15.90
2019-06-08T03:32:57.521Z,15.90
2019-06-08T03:33:37.874Z,15.90
2019-06-08T03:34:09.932Z,15.80
2019-06-08T03:34:54.784Z,15.90
2019-06-08T03:35:23.663Z,15.90
2019-06-08T03:35:59.075Z,15.90
2019-06-08T03:36:39.057Z,15.80
2019-06-08T03:37:12.039Z,15.90
2019-06-08T03:37:47.076Z,15.80
2019-06-08T03:38:22.677Z,15.80
2019-06-08T03:38:58.266Z,15.80
2019-06-08T03:39:35.088Z,15.80
2019-06-08T03:40:11.036Z,15.80
2019-06-08T03:40:46.632Z,15.70
2019-06-08T03:41:22.368Z,15.80
2019-06-08T03:41:58.038Z,15.70
2019-06-08T03:42:33.667Z,15.70
2019-06-08T03:43:08.935Z,15.70
2019-06-08T03:43:45.215Z,15.70
2019-06-08T03:44:21.135Z,15.70
2019-06-08T03:44:56.236Z,15.70
2019-06-08T03:45:31.930Z,15.70
2019-06-08T03:46:07.557Z,15.70
2019-06-08T03:46:44.099Z,15.70
2019-06-08T03:47:19.953Z,15.70
2019-06-08T03:47:55.880Z,15.60
2019-06-08T03:48:30.959Z,15.60
2019-06-08T03:49:06.591Z,15.60
2019-06-08T03:49:52.305Z,15.60
2019-06-08T03:50:18.940Z,15.60
2019-06-08T03:50:54.617Z,15.60
2019-06-08T03:51:34.279Z,15.50
2019-06-08T03:52:06.995Z,15.50
2019-06-08T03:52:44.111Z,15.50
2019-06-08T03:53:19.967Z,15.50
2019-06-08T03:53:55.019Z,15.50
2019-06-08T03:54:30.836Z,15.50
2019-06-08T03:55:06.531Z,15.40
2019-06-08T03:55:42.978Z,15.40
2019-06-08T03:56:20.029Z,15.40
2019-06-08T03:56:55.655Z,15.40
2019-06-08T03:57:30.747Z,15.40
2019-06-08T03:58:06.510Z,15.40
2019-06-08T03:58:43.365Z,15.40
2019-06-08T03:59:19.215Z,15.40
2019-06-08T03:59:54.818Z,15.40
2019-06-08T04:00:30.455Z,15.40
2019-06-08T04:01:05.491Z,15.40
2019-06-08T04:01:43.873Z,15.40
2019-06-08T04:02:19.599Z,15.40
2019-06-08T04:02:54.626Z,15.40
2019-06-08T04:03:30.291Z,15.40
2019-06-08T04:04:05.982Z,15.40
2019-06-08T04:04:43.513Z,15.40
2019-06-08T04:05:19.234Z,15.40
2019-06-08T04:05:55.171Z,15.40
2019-06-08T04:06:30.327Z,15.30
2019-06-08T04:07:05.951Z,15.30
2019-06-08T04:07:42.085Z,15.30
2019-06-08T04:08:18.371Z,15.30
2019-06-08T04:08:54.300Z,15.30
2019-06-08T04:09:29.995Z,15.30
2019-06-08T04:10:05.705Z,15.30
2019-06-08T04:10:42.128Z,15.30
2019-06-08T04:11:18.348Z,15.30
2019-06-08T04:11:53.371Z,15.30
2019-06-08T04:12:28.978Z,15.30
2019-06-08T04:13:04.585Z,15.30
2019-06-08T04:13:39.901Z,15.30
2019-06-08T04:14:15.807Z,15.30
2019-06-08T04:14:51.478Z,15.30
2019-06-08T04:15:26.553Z,15.30
2019-06-08T04:16:02.426Z,15.30
2019-06-08T04:16:40.040Z,15.30
2019-06-08T04:17:15.328Z,15.30
2019-06-08T04:17:51.271Z,15.30
2019-06-08T04:18:26.934Z,15.30
2019-06-08T04:19:01.973Z,15.30
2019-06-08T04:19:38.204Z,15.30
2019-06-08T04:20:15.335Z,15.30
2019-06-08T04:20:51.535Z,15.30
2019-06-08T04:21:27.905Z,15.30
2019-06-08T04:22:04.099Z,15.40
2019-06-08T04:22:44.754Z,15.40
2019-06-08T04:23:20.775Z,15.40
2019-06-08T04:23:56.398Z,15.40
2019-06-08T04:24:31.599Z,15.40
2019-06-08T04:25:07.942Z,15.40
2019-06-08T04:25:45.001Z,15.40
2019-06-08T04:26:20.631Z,15.40
2019-06-08T04:26:57.327Z,15.40
2019-06-08T04:27:33.004Z,15.40
2019-06-08T04:28:08.071Z,15.40
2019-06-08T04:28:44.744Z,15.40
2019-06-08T04:29:21.027Z,15.40
2019-06-08T04:29:56.128Z,15.40
2019-06-08T04:30:31.847Z,15.40
2019-06-08T04:31:07.455Z,15.30
2019-06-08T04:31:43.816Z,15.40
2019-06-08T04:32:19.600Z,15.30
2019-06-08T04:32:55.300Z,15.40
2019-06-08T04:33:30.438Z,15.30
2019-06-08T04:34:06.185Z,15.40
2019-06-08T04:34:42.921Z,15.30
2019-06-08T04:35:18.477Z,15.30
2019-06-08T04:35:54.139Z,15.40
2019-06-08T04:36:29.895Z,15.30
2019-06-08T04:37:05.235Z,15.30
2019-06-08T04:37:42.461Z,15.40
2019-06-08T04:38:18.535Z,15.40
2019-06-08T04:38:53.940Z,15.40
2019-06-08T04:39:30.014Z,15.40
2019-06-08T04:40:06.297Z,15.30
2019-06-08T04:40:41.958Z,15.30
2019-06-08T04:41:19.225Z,15.30
2019-06-08T04:41:54.846Z,15.30
2019-06-08T04:42:29.931Z,15.30
2019-06-08T04:43:05.620Z,15.30
2019-06-08T04:43:42.829Z,15.30
2019-06-08T04:44:18.239Z,15.30
2019-06-08T04:44:53.856Z,15.30
2019-06-08T04:45:29.503Z,15.30
2019-06-08T04:46:04.911Z,15.30
2019-06-08T04:46:40.869Z,15.30
2019-06-08T04:47:17.831Z,15.30
2019-06-08T04:47:52.876Z,15.30
2019-06-08T04:48:29.876Z,15.30
2019-06-08T04:49:05.528Z,15.30
2019-06-08T04:49:40.592Z,15.30
2019-06-08T04:50:22.384Z,15.30
2019-06-08T04:50:53.594Z,15.30
2019-06-08T04:51:28.630Z,15.30
2019-06-08T04:52:04.630Z,15.30
2019-06-08T04:52:40.859Z,15.30
2019-06-08T04:53:17.072Z,15.30
2019-06-08T04:53:52.721Z,15.30
2019-06-08T04:54:28.344Z,15.30
2019-06-08T04:55:04.251Z,15.30
2019-06-08T04:55:40.939Z,15.30
2019-06-08T04:56:16.715Z,15.30
2019-06-08T04:56:51.739Z,15.30
2019-06-08T04:57:27.543Z,15.30
2019-06-08T04:58:03.216Z,15.30
2019-06-08T04:58:39.789Z,15.30
2019-06-08T04:59:16.336Z,15.30
2019-06-08T04:59:52.026Z,15.30
2019-06-08T05:00:31.205Z,15.30
2019-06-08T05:01:04.372Z,15.30
2019-06-08T05:01:40.898Z,15.30
2019-06-08T05:02:16.359Z,15.30
2019-06-08T05:02:51.957Z,15.30
2019-06-08T05:03:27.562Z,15.30
2019-06-08T05:04:02.597Z,15.30
2019-06-08T05:04:38.953Z,15.30
2019-06-08T05:05:14.694Z,15.30
2019-06-08T05:05:50.235Z,15.30
2019-06-08T05:06:27.086Z,15.30
2019-06-08T05:07:02.702Z,15.30
2019-06-08T05:07:39.253Z,15.30
2019-06-08T05:08:15.378Z,15.30
2019-06-08T05:08:50.986Z,15.30
2019-06-08T05:09:27.404Z,15.30
2019-06-08T05:10:03.295Z,15.30
2019-06-08T05:10:39.295Z,15.30
2019-06-08T05:11:14.821Z,15.30
2019-06-08T05:11:50.438Z,15.30
2019-06-08T05:12:26.681Z,15.30
2019-06-08T05:13:02.057Z,15.30
2019-06-08T05:13:39.046Z,15.30
2019-06-08T05:14:14.791Z,15.30
2019-06-08T05:14:49.835Z,15.30
2019-06-08T05:15:25.512Z,15.30
2019-06-08T05:16:01.123Z,15.30
2019-06-08T05:16:36.182Z,15.30
2019-06-08T05:17:11.790Z,15.30
2019-06-08T05:17:47.616Z,15.30
2019-06-08T05:18:25.875Z,15.30
2019-06-08T05:19:00.063Z,15.30
2019-06-08T05:19:35.902Z,15.30
2019-06-08T05:20:10.959Z,15.30
2019-06-08T05:20:49.129Z,15.30
2019-06-08T05:21:23.895Z,15.30
2019-06-08T05:21:58.925Z,15.30
2019-06-08T05:22:34.779Z,15.30
2019-06-08T05:23:10.677Z,15.30
2019-06-08T05:23:45.724Z,15.30
2019-06-08T05:24:21.408Z,15.30
2019-06-08T05:24:57.115Z,15.30
2019-06-08T05:25:32.374Z,15.30
2019-06-08T05:26:07.978Z,15.30
2019-06-08T05:26:43.656Z,15.30
2019-06-08T05:27:18.698Z,15.30
2019-06-08T05:27:54.310Z,15.30
2019-06-08T05:28:30.010Z,15.20
2019-06-08T05:29:05.047Z,15.20
2019-06-08T05:29:41.292Z,15.30
2019-06-08T05:30:17.140Z,15.30
2019-06-08T05:30:52.159Z,15.30
2019-06-08T05:31:27.774Z,15.30
2019-06-08T05:32:03.508Z,15.30
2019-06-08T05:32:39.392Z,15.30
2019-06-08T05:33:15.272Z,15.30
2019-06-08T05:33:50.890Z,15.20
2019-06-08T05:34:27.002Z,15.30
2019-06-08T05:35:02.674Z,15.30
2019-06-08T05:35:39.382Z,15.30
2019-06-08T05:36:14.491Z,15.20
2019-06-08T05:36:50.476Z,15.20
2019-06-08T05:37:26.082Z,15.20
2019-06-08T05:38:01.110Z,15.20
2019-06-08T05:38:36.994Z,15.20
2019-06-08T05:39:12.903Z,15.20
2019-06-08T05:39:47.923Z,15.20
2019-06-08T05:40:23.930Z,15.20
2019-06-08T05:40:59.543Z,15.20
2019-06-08T05:41:34.638Z,15.20
2019-06-08T05:42:10.506Z,15.20
2019-06-08T05:42:46.106Z,15.20
2019-06-08T05:43:21.147Z,15.20
2019-06-08T05:43:56.755Z,15.20
2019-06-08T05:44:32.503Z,15.20
2019-06-08T05:45:07.549Z,15.20
2019-06-08T05:45:43.579Z,15.20
2019-06-08T05:46:19.368Z,15.20
2019-06-08T05:46:54.392Z,15.20
2019-06-08T05:47:30.311Z,15.20
2019-06-08T05:48:05.976Z,15.30
2019-06-08T05:48:41.866Z,15.20
2019-06-08T05:49:17.804Z,15.20
2019-06-08T05:49:53.660Z,15.20
2019-06-08T05:50:28.715Z,15.20
2019-06-08T05:51:04.622Z,15.20
2019-06-08T05:51:41.714Z,15.20
2019-06-08T05:52:17.098Z,15.20
2019-06-08T05:52:52.742Z,15.20
2019-06-08T05:53:28.705Z,15.20
2019-06-08T05:54:04.057Z,15.20
2019-06-08T05:54:40.002Z,15.20
2019-06-08T05:55:16.682Z,15.20
2019-06-08T05:55:51.743Z,15.20
2019-06-08T05:56:27.354Z,15.20
2019-06-08T05:57:03.095Z,15.20
2019-06-08T05:57:40.037Z,15.20
2019-06-08T05:58:15.874Z,15.20
2019-06-08T05:58:51.527Z,15.20
2019-06-08T05:59:26.554Z,15.20
2019-06-08T06:00:08.776Z,15.20
2019-06-08T06:00:40.049Z,15.20
2019-06-08T06:01:15.417Z,15.20
2019-06-08T06:01:51.215Z,15.20
2019-06-08T06:02:27.840Z,15.20
2019-06-08T06:03:02.934Z,15.20
2019-06-08T06:03:40.333Z,15.20
2019-06-08T06:04:16.286Z,15.20
2019-06-08T06:04:53.762Z,15.20
2019-06-08T06:05:28.995Z,15.20
2019-06-08T06:06:04.610Z,15.10
2019-06-08T06:06:40.432Z,15.10
2019-06-08T06:07:16.138Z,15.20
2019-06-08T06:07:51.757Z,15.10
2019-06-08T06:08:28.120Z,15.10
2019-06-08T06:09:04.296Z,15.10
2019-06-08T06:09:41.121Z,15.10
2019-06-08T06:10:16.407Z,15.10
2019-06-08T06:10:52.604Z,15.10
2019-06-08T06:11:28.223Z,15.10
2019-06-08T06:12:03.286Z,15.10
2019-06-08T06:12:38.896Z,15.10
2019-06-08T06:13:14.832Z,15.10
2019-06-08T06:13:51.330Z,15.10
2019-06-08T06:14:27.619Z,15.10
2019-06-08T06:15:03.379Z,15.10
2019-06-08T06:15:38.832Z,15.10
2019-06-08T06:16:14.768Z,15.10
2019-06-08T06:16:51.354Z,15.10
2019-06-08T06:17:26.446Z,15.10
2019-06-08T06:18:02.060Z,15.10
2019-06-08T06:18:37.694Z,15.10
2019-06-08T06:19:12.745Z,15.10
2019-06-08T06:19:49.263Z,15.10
2019-06-08T06:20:25.037Z,15.10
2019-06-08T06:21:10.348Z,15.10
2019-06-08T06:21:37.400Z,15.10
2019-06-08T06:22:13.022Z,15.10
2019-06-08T06:22:49.522Z,15.10
2019-06-08T06:23:26.278Z,15.10
2019-06-08T06:24:01.989Z,15.10
2019-06-08T06:24:37.339Z,15.00
2019-06-08T06:25:12.961Z,15.00
2019-06-08T06:25:49.631Z,15.00
2019-06-08T06:26:24.828Z,15.00
2019-06-08T06:27:00.454Z,15.00
2019-06-08T06:27:36.084Z,15.00
2019-06-08T06:28:11.362Z,15.00
2019-06-08T06:28:47.625Z,15.00
2019-06-08T06:29:23.274Z,15.00
2019-06-08T06:29:58.298Z,15.00
2019-06-08T06:30:34.233Z,15.00
2019-06-08T06:31:09.882Z,15.00
2019-06-08T06:31:45.815Z,15.00
2019-06-08T06:32:21.623Z,15.00
2019-06-08T06:32:58.263Z,15.00
2019-06-08T06:33:33.326Z,15.00
2019-06-08T06:34:08.979Z,14.90
2019-06-08T06:34:45.807Z,14.90
2019-06-08T06:35:21.061Z,14.90
2019-06-08T06:35:56.670Z,14.90
2019-06-08T06:36:32.612Z,14.90
2019-06-08T06:37:07.667Z,14.90
2019-06-08T06:37:43.804Z,14.90
2019-06-08T06:38:19.919Z,14.90
2019-06-08T06:38:55.267Z,14.90
2019-06-08T06:39:30.991Z,14.90
2019-06-08T06:40:06.625Z,14.90
2019-06-08T06:40:41.981Z,14.90
2019-06-08T06:41:17.600Z,14.90
2019-06-08T06:41:53.207Z,14.90
2019-06-08T06:42:31.492Z,14.90
2019-06-08T06:43:07.109Z,14.90
2019-06-08T06:43:43.886Z,14.90
2019-06-08T06:44:19.055Z,14.90
2019-06-08T06:44:55.755Z,14.90
2019-06-08T06:45:31.799Z,14.90
2019-06-08T06:46:07.087Z,14.90
2019-06-08T06:46:43.901Z,14.90
2019-06-08T06:47:19.712Z,14.90
2019-06-08T06:47:54.742Z,14.90
2019-06-08T06:48:30.379Z,15.00
2019-06-08T06:49:06.272Z,15.00
2019-06-08T06:49:42.391Z,15.00
2019-06-08T06:50:18.125Z,15.00
2019-06-08T06:50:53.792Z,15.00
2019-06-08T06:51:28.827Z,15.00
2019-06-08T06:52:04.438Z,15.00
2019-06-08T06:52:40.046Z,15.00
2019-06-08T06:53:15.116Z,15.00
2019-06-08T06:53:50.879Z,15.00
2019-06-08T06:54:26.542Z,15.00
2019-06-08T06:55:01.963Z,15.00
2019-06-08T06:55:37.564Z,15.00
2019-06-08T06:56:13.174Z,15.00
2019-06-08T06:56:49.409Z,15.00
2019-06-08T06:57:25.162Z,15.00
2019-06-08T06:58:00.773Z,15.00
2019-06-08T06:58:35.798Z,15.00
2019-06-08T06:59:11.405Z,15.00
2019-06-08T06:59:47.237Z,15.00
2019-06-08T07:00:30.959Z,15.00
2019-06-08T07:01:06.971Z,15.00
2019-06-08T07:01:43.427Z,15.00
2019-06-08T07:02:18.642Z,15.00
2019-06-08T07:02:54.250Z,15.10
2019-06-08T07:03:29.999Z,15.10
2019-06-08T07:04:05.041Z,15.10
2019-06-08T07:04:40.650Z,15.10
2019-06-08T07:05:16.374Z,15.10
2019-06-08T07:05:51.998Z,15.10
2019-06-08T07:06:27.840Z,15.10
2019-06-08T07:07:03.531Z,15.10
2019-06-08T07:07:38.759Z,15.10
2019-06-08T07:08:14.455Z,15.20
2019-06-08T07:08:50.320Z,15.20
2019-06-08T07:09:25.552Z,15.20
2019-06-08T07:10:01.194Z,15.30
2019-06-08T07:10:36.888Z,15.30
2019-06-08T07:11:11.926Z,15.30
2019-06-08T07:11:48.824Z,15.40
2019-06-08T07:12:24.880Z,15.40
2019-06-08T07:13:00.092Z,15.50
2019-06-08T07:13:35.819Z,15.50
2019-06-08T07:14:11.562Z,15.50
2019-06-08T07:14:47.039Z,15.50
2019-06-08T07:15:28.937Z,15.60
2019-06-08T07:16:18.056Z,15.60
2019-06-08T07:16:41.911Z,15.70
2019-06-08T07:17:17.664Z,15.70
2019-06-08T07:17:54.904Z,15.70
2019-06-08T07:18:30.382Z,15.80
2019-06-08T07:19:06.258Z,15.80
2019-06-08T07:19:41.919Z,15.90
2019-06-08T07:20:17.411Z,15.90
2019-06-08T07:20:54.338Z,16.00
2019-06-08T07:21:41.214Z,16.00
2019-06-08T07:22:08.175Z,16.10
2019-06-08T07:22:43.812Z,16.10
2019-06-08T07:23:19.466Z,16.10
2019-06-08T07:23:56.260Z,16.20
2019-06-08T07:24:32.423Z,16.20
2019-06-08T07:25:08.040Z,16.20
2019-06-08T07:25:43.070Z,16.20
2019-06-08T07:26:18.734Z,16.20
2019-06-08T07:26:54.648Z,16.20
2019-06-08T07:27:29.881Z,16.10
2019-06-08T07:28:05.499Z,16.10
2019-06-08T07:28:41.198Z,16.10
2019-06-08T07:29:16.748Z,16.20
2019-06-08T07:29:52.724Z,16.20
2019-06-08T07:30:28.414Z,16.20
2019-06-08T07:31:03.430Z,16.30
2019-06-08T07:31:39.959Z,16.30
2019-06-08T07:32:15.729Z,16.30
2019-06-08T07:32:51.005Z,16.40
2019-06-08T07:33:26.721Z,16.40
2019-06-08T07:34:02.519Z,16.40
2019-06-08T07:34:41.008Z,16.50
2019-06-08T07:35:15.126Z,16.50
2019-06-08T07:35:51.561Z,16.60
2019-06-08T07:36:26.647Z,16.60
2019-06-08T07:37:02.433Z,16.70
2019-06-08T07:37:38.437Z,16.70
2019-06-08T07:38:13.502Z,16.70
2019-06-08T07:38:49.954Z,16.70
2019-06-08T07:39:25.907Z,16.70
2019-06-08T07:40:01.036Z,16.70
2019-06-08T07:40:36.931Z,16.70
2019-06-08T07:41:12.562Z,16.70
2019-06-08T07:41:49.063Z,16.70